Time;durP1;ratioP1;P1;durP2;ratioP2;P2;SDS_P1;SDS_P2;PMS_P1;PMS_P2;Temp;Humidity;BMP_temperature;BMP_pressure;BME280_temperature;BME280_humidity;BME280_pressure;Samples;Min_cycle;Max_cycle;Signal;HPM_P1;HPM_P2
2021/09/25 00:02:03;;;;;;;;;;;;;;;;;;5024638;28;19933;-90
2021/09/25 00:04:31;;;;;;;;;;;;;;;;;;5022448;28;19932;-90
2021/09/25 00:07:01;;;;;;;;;;;;;;;;;;5035289;28;19921;-91
2021/09/25 00:09:30;;;;;;;;;;;;;;;;;;5038267;28;19925;-88
2021/09/25 00:11:58;;;;;;;;;;;;;;;;;;5014101;28;19955;-89
2021/09/25 00:14:26;;;;;;;;;;;;;;;;;;5013844;28;19929;-88
2021/09/25 00:16:55;;;;;;;;;;;;;;;;;;5031674;28;19929;-88
2021/09/25 00:19:23;;;;;;;;;;;;;;;;;;5016499;28;19929;-89
2021/09/25 00:21:51;;;;;;;;;;;;;;;;;;5033836;28;19924;-91
2021/09/25 00:24:21;;;;;;;;;;;;;;;;;;5017975;28;19929;-90
2021/09/25 00:26:49;;;;;;;;;;;;;;;;;;5030971;28;19932;-90
2021/09/25 00:29:17;;;;;;;;;;;;;;;;;;5021442;28;19928;-90
2021/09/25 00:31:46;;;;;;;;;;;;;;;;;;5014179;28;19929;-90
2021/09/25 00:34:14;;;;;;;;;;;;;;;;;;5008740;28;20272;-89
2021/09/25 00:36:42;;;;;;;;;;;;;;;;;;5016405;28;19936;-91
2021/09/25 00:39:10;;;;;;;;;;;;;;;;;;5004215;28;19940;-88
2021/09/25 00:41:40;;;;;;;;;;;;;;;;;;5011519;28;20028;-89
2021/09/25 00:44:09;;;;;;;;;;;;;;;;;;5029230;28;19948;-89
2021/09/25 00:46:37;;;;;;;;;;;;;;;;;;5016460;28;23310;-88
2021/09/25 00:49:05;;;;;;;;;;;;;;;;;;5009322;28;19925;-88
2021/09/25 00:51:33;;;;;;;;;;;;;;;;;;5010419;28;19933;-88
2021/09/25 00:54:02;;;;;;;;;;;;;;;;;;5010229;28;19932;-91
2021/09/25 00:56:30;;;;;;;;;;;;;;;;;;5035177;28;19933;-91
2021/09/25 00:59:01;;;;;;;;;;;;;;;;;;5013079;28;19925;-87
2021/09/25 01:01:29;;;;;;;;;;;;;;;;;;5033642;28;19925;-90
2021/09/25 01:03:58;;;;;;;;;;;;;;;;;;5013827;28;19925;-90
2021/09/25 01:06:27;;;;;;;;;;;;;;;;;;5006910;28;19925;-91
2021/09/25 01:08:55;;;;;;;;;;;;;;;;;;5012367;28;19929;-90
2021/09/25 01:11:23;;;;;;;;;;;;;;;;;;5012270;28;19933;-91
2021/09/25 01:13:52;;;;;;;;;;;;;;;;;;5017594;28;20450;-87
2021/09/25 01:16:21;;;;;;;;;;;;;;;;;;5015868;28;19931;-88
2021/09/25 01:18:50;;;;;;;;;;;;;;;;;;5006699;28;20311;-88
2021/09/25 01:21:20;;;;;;;;;;;;;;;;;;5013078;28;19932;-89
2021/09/25 01:23:48;;;;;;;;;;;;;;;;;;5009512;28;19933;-89
2021/09/25 01:26:17;;;;;;;;;;;;;;;;;;5008520;28;20288;-91
2021/09/25 01:28:46;;;;;;;;;;;;;;;;;;5036742;28;19925;-90
2021/09/25 01:31:14;;;;;;;;;;;;;;;;;;5030179;28;20006;-90
2021/09/25 01:33:43;;;;;;;;;;;;;;;;;;5014344;28;19925;-90
2021/09/25 01:36:12;;;;;;;;;;;;;;;;;;5016599;28;19925;-91
2021/09/25 01:38:42;;;;;;;;;;;;;;;;;;5012378;28;19929;-89
2021/09/25 01:41:11;;;;;;;;;;;;;;;;;;5013033;28;19981;-89
2021/09/25 01:43:39;;;;;;;;;;;;;;;;;;5017587;28;19925;-90
2021/09/25 01:46:07;;;;;;;;;;;;;;;;;;5013281;28;19925;-90
2021/09/25 01:48:36;;;;;;;;;;;;;;;;;;5012428;28;20326;-90
2021/09/25 01:51:04;;;;;;;;;;;;;;;;;;5015211;28;19929;-89
2021/09/25 01:53:33;;;;;;;;;;;;;;;;;;5022781;28;19925;-88
2021/09/25 01:56:08;;;;;;;;;;;;;;;;;;5014968;28;19932;-88
2021/09/25 01:58:36;;;;;;;;;;;;;;;;;;5008461;28;19929;-91
2021/09/25 02:01:05;;;;;;;;;;;;;;;;;;5015660;28;19944;-88
2021/09/25 02:03:35;;;;;;;;;;;;;;;;;;5007857;28;19925;-89
2021/09/25 02:06:04;;;;;;;;;;;;;;;;;;5033254;28;19936;-90
2021/09/25 02:08:32;;;;;;;;;;;;;;;;;;5020731;28;19932;-89
2021/09/25 02:11:00;;;;;;;;;;;;;;;;;;5007363;28;20292;-87
2021/09/25 02:13:31;;;;;;;;;;;;;;;;;;5013053;28;19932;-90
2021/09/25 02:15:59;;;;;;;;;;;;;;;;;;5020851;28;19933;-90
2021/09/25 02:18:28;;;;;;;;;;;;;;;;;;5016638;28;19925;-90
2021/09/25 02:20:56;;;;;;;;;;;;;;;;;;5012906;28;19925;-89
2021/09/25 02:23:24;;;;;;;;;;;;;;;;;;5012522;28;20421;-89
2021/09/25 02:25:53;;;;;;;;;;;;;;;;;;5014876;28;19926;-91
2021/09/25 02:28:21;;;;;;;;;;;;;;;;;;5038078;28;19925;-90
2021/09/25 02:30:51;;;;;;;;;;;;;;;;;;5039682;28;19913;-91
2021/09/25 02:33:19;;;;;;;;;;;;;;;;;;5034589;28;19924;-90
2021/09/25 02:35:49;;;;;;;;;;;;;;;;;;5032893;28;19925;-91
2021/09/25 02:38:18;;;;;;;;;;;;;;;;;;5003530;28;20387;-91
2021/09/25 02:40:46;;;;;;;;;;;;;;;;;;5040636;28;19933;-91
2021/09/25 02:43:14;;;;;;;;;;;;;;;;;;5015526;28;19932;-90
2021/09/25 02:45:43;;;;;;;;;;;;;;;;;;5010209;28;19925;-91
2021/09/25 02:48:12;;;;;;;;;;;;;;;;;;5012069;28;20403;-89
2021/09/25 02:50:41;;;;;;;;;;;;;;;;;;5012112;28;19933;-90
2021/09/25 02:53:09;;;;;;;;;;;;;;;;;;5038596;28;19925;-90
2021/09/25 02:55:38;;;;;;;;;;;;;;;;;;5040798;28;19934;-91
2021/09/25 02:58:06;;;;;;;;;;;;;;;;;;5024361;28;20326;-91
2021/09/25 03:00:34;;;;;;;;;;;;;;;;;;5011289;28;19984;-91
2021/09/25 03:03:03;;;;;;;;;;;;;;;;;;5013331;28;19926;-89
2021/09/25 03:05:33;;;;;;;;;;;;;;;;;;5031117;28;19925;-89
2021/09/25 03:08:01;;;;;;;;;;;;;;;;;;5003603;28;19926;-90
2021/09/25 03:10:30;;;;;;;;;;;;;;;;;;5025365;28;19933;-89
2021/09/25 03:12:58;;;;;;;;;;;;;;;;;;5013756;28;19925;-89
2021/09/25 03:15:26;;;;;;;;;;;;;;;;;;5000594;28;19929;-88
2021/09/25 03:17:55;;;;;;;;;;;;;;;;;;5011474;28;19983;-89
2021/09/25 03:20:23;;;;;;;;;;;;;;;;;;5011861;28;19932;-89
2021/09/25 03:22:53;;;;;;;;;;;;;;;;;;5017462;28;20410;-88
2021/09/25 03:25:21;;;;;;;;;;;;;;;;;;5027224;28;19951;-91
2021/09/25 03:27:53;;;;;;;;;;;;;;;;;;5008345;28;19925;-90
2021/09/25 03:30:23;;;;;;;;;;;;;;;;;;5004883;28;19925;-90
2021/09/25 03:32:51;;;;;;;;;;;;;;;;;;5016397;28;19936;-88
2021/09/25 03:38:27;;;;;;;;;;;;;;;;;;5012517;28;19926;-90
2021/09/25 03:40:56;;;;;;;;;;;;;;;;;;5012332;28;20315;-90
2021/09/25 03:43:24;;;;;;;;;;;;;;;;;;5014487;28;20000;-90
2021/09/25 03:45:53;;;;;;;;;;;;;;;;;;5026674;28;19936;-89
2021/09/25 03:48:21;;;;;;;;;;;;;;;;;;5011725;28;19941;-88
2021/09/25 03:50:50;;;;;;;;;;;;;;;;;;5023019;28;20309;-88
2021/09/25 03:53:19;;;;;;;;;;;;;;;;;;5018535;28;19925;-89
2021/09/25 03:55:49;;;;;;;;;;;;;;;;;;5012516;28;19929;-88
2021/09/25 03:58:18;;;;;;;;;;;;;;;;;;5015653;28;19933;-87
2021/09/25 04:00:48;;;;;;;;;;;;;;;;;;5034874;28;20414;-88
2021/09/25 04:03:16;;;;;;;;;;;;;;;;;;5026490;28;20067;-90
2021/09/25 04:05:46;;;;;;;;;;;;;;;;;;5006727;28;19937;-89
2021/09/25 04:08:14;;;;;;;;;;;;;;;;;;5017035;28;20407;-88
2021/09/25 04:10:42;;;;;;;;;;;;;;;;;;5010367;28;19933;-90
2021/09/25 04:13:12;;;;;;;;;;;;;;;;;;5030880;28;20276;-89
2021/09/25 04:15:41;;;;;;;;;;;;;;;;;;5010931;28;19936;-90
2021/09/25 04:18:09;;;;;;;;;;;;;;;;;;5032254;28;19936;-89
2021/09/25 04:20:38;;;;;;;;;;;;;;;;;;5012031;28;19933;-90
2021/09/25 04:23:06;;;;;;;;;;;;;;;;;;5020685;28;20272;-87
2021/09/25 04:25:34;;;;;;;;;;;;;;;;;;5011227;28;19925;-87
2021/09/25 04:28:05;;;;;;;;;;;;;;;;;;5029449;28;19933;-90
2021/09/25 04:30:35;;;;;;;;;;;;;;;;;;5014284;28;20406;-87
2021/09/25 04:33:03;;;;;;;;;;;;;;;;;;5023559;28;20281;-89
2021/09/25 04:35:32;;;;;;;;;;;;;;;;;;5013828;28;19925;-88
2021/09/25 04:38:00;;;;;;;;;;;;;;;;;;5029194;28;19925;-88
2021/09/25 04:40:30;;;;;;;;;;;;;;;;;;5011385;28;19925;-88
2021/09/25 04:42:58;;;;;;;;;;;;;;;;;;5014709;28;19948;-90
2021/09/25 04:45:27;;;;;;;;;;;;;;;;;;5014707;28;19925;-88
2021/09/25 04:47:56;;;;;;;;;;;;;;;;;;5014827;28;20300;-90
2021/09/25 04:50:29;;;;;;;;;;;;;;;;;;5008478;28;19933;-90
2021/09/25 04:53:05;;;;;;;;;;;;;;;;;;5050822;28;19915;-90
2021/09/25 04:55:33;;;;;;;;;;;;;;;;;;5031838;28;20394;-90
2021/09/25 04:58:01;;;;;;;;;;;;;;;;;;5014872;28;20425;-88
2021/09/25 05:00:30;;;;;;;;;;;;;;;;;;5018395;28;19925;-88
2021/09/25 05:02:59;;;;;;;;;;;;;;;;;;5016413;28;19932;-89
2021/09/25 05:05:28;;;;;;;;;;;;;;;;;;5018032;28;19944;-89
2021/09/25 05:07:56;;;;;;;;;;;;;;;;;;5013014;28;19933;-89
2021/09/25 05:10:25;;;;;;;;;;;;;;;;;;5015034;28;19925;-89
2021/09/25 05:12:53;;;;;;;;;;;;;;;;;;5013915;28;19940;-88
2021/09/25 05:15:22;;;;;;;;;;;;;;;;;;5016240;28;19925;-88
2021/09/25 05:17:51;;;;;;;;;;;;;;;;;;5011313;28;19925;-89
2021/09/25 05:20:21;;;;;;;;;;;;;;;;;;5009195;28;19925;-88
2021/09/25 05:22:50;;;;;;;;;;;;;;;;;;4999124;28;19929;-90
2021/09/25 05:25:18;;;;;;;;;;;;;;;;;;5015157;28;20327;-89
2021/09/25 05:27:48;;;;;;;;;;;;;;;;;;5011034;28;19925;-88
2021/09/25 05:30:17;;;;;;;;;;;;;;;;;;5013565;28;19925;-87
2021/09/25 05:32:45;;;;;;;;;;;;;;;;;;5010853;28;19939;-89
2021/09/25 05:35:14;;;;;;;;;;;;;;;;;;5023777;28;19929;-89
2021/09/25 05:37:44;;;;;;;;;;;;;;;;;;5011766;28;20319;-88
2021/09/25 05:40:12;;;;;;;;;;;;;;;;;;5029411;28;20434;-88
2021/09/25 05:42:41;;;;;;;;;;;;;;;;;;5013639;28;19926;-88
2021/09/25 05:45:11;;;;;;;;;;;;;;;;;;5017498;28;19929;-89
2021/09/25 05:47:39;;;;;;;;;;;;;;;;;;5030933;28;19929;-88
2021/09/25 05:50:08;;;;;;;;;;;;;;;;;;5016968;28;19925;-89
2021/09/25 05:52:36;;;;;;;;;;;;;;;;;;5020948;28;20392;-87
2021/09/25 05:55:07;;;;;;;;;;;;;;;;;;5031956;28;19936;-89
2021/09/25 05:57:35;;;;;;;;;;;;;;;;;;5010781;28;19933;-88
2021/09/25 06:00:04;;;;;;;;;;;;;;;;;;5015094;28;19925;-89
2021/09/25 06:02:39;;;;;;;;;;;;;;;;;;5043060;28;19926;-87
2021/09/25 06:05:09;;;;;;;;;;;;;;;;;;5006489;28;20052;-88
2021/09/25 06:07:37;;;;;;;;;;;;;;;;;;5009551;28;19925;-86
2021/09/25 06:10:07;;;;;;;;;;;;;;;;;;5009980;28;19948;-88
2021/09/25 06:12:36;;;;;;;;;;;;;;;;;;5014007;28;19925;-89
2021/09/25 06:15:04;;;;;;;;;;;;;;;;;;5014276;28;19940;-87
2021/09/25 06:17:33;;;;;;;;;;;;;;;;;;5010952;28;19953;-90
2021/09/25 06:20:01;;;;;;;;;;;;;;;;;;5025343;28;19929;-89
2021/09/25 06:22:29;;;;;;;;;;;;;;;;;;5005965;28;19948;-89
2021/09/25 06:24:58;;;;;;;;;;;;;;;;;;5003391;28;19933;-88
2021/09/25 06:27:28;;;;;;;;;;;;;;;;;;5015093;28;19929;-86
2021/09/25 06:29:56;;;;;;;;;;;;;;;;;;5009885;28;19935;-87
2021/09/25 06:32:24;;;;;;;;;;;;;;;;;;5003538;28;20307;-87
2021/09/25 06:34:53;;;;;;;;;;;;;;;;;;5011225;28;20306;-89
2021/09/25 06:37:21;;;;;;;;;;;;;;;;;;5006395;28;19933;-89
2021/09/25 06:39:50;;;;;;;;;;;;;;;;;;5017273;28;19929;-87
2021/09/25 06:42:18;;;;;;;;;;;;;;;;;;5021866;28;19926;-88
2021/09/25 06:44:49;;;;;;;;;;;;;;;;;;5001257;28;20315;-86
2021/09/25 06:47:18;;;;;;;;;;;;;;;;;;5031393;28;19929;-87
2021/09/25 06:49:47;;;;;;;;;;;;;;;;;;5004200;28;19933;-86
2021/09/25 06:52:15;;;;;;;;;;;;;;;;;;5017502;28;20321;-87
2021/09/25 06:54:44;;;;;;;;;;;;;;;;;;5010136;28;20323;-86
2021/09/25 06:57:12;;;;;;;;;;;;;;;;;;5027623;28;19936;-89
2021/09/25 06:59:57;;;;;;;;;;;;;;;;;;5012697;28;20397;-86
2021/09/25 07:02:25;;;;;;;;;;;;;;;;;;5003601;28;19941;-88
2021/09/25 07:04:54;;;;;;;;;;;;;;;;;;5013250;28;19941;-87
2021/09/25 07:07:25;;;;;;;;;;;;;;;;;;5002466;28;19936;-88
2021/09/25 07:09:58;;;;;;;;;;;;;;;;;;5005127;28;19925;-89
2021/09/25 07:12:40;;;;;;;;;;;;;;;;;;5021870;28;19925;-88
2021/09/25 07:15:36;;;;;;;;;;;;;;;;;;5044248;28;20020;-91
2021/09/25 07:18:08;;;;;;;;;;;;;;;;;;5037542;28;19921;-90
2021/09/25 07:20:39;;;;;;;;;;;;;;;;;;5016792;28;20330;-89
2021/09/25 07:23:09;;;;;;;;;;;;;;;;;;5035088;28;19925;-87
2021/09/25 07:25:46;;;;;;;;;;;;;;;;;;5018639;28;19936;-86
2021/09/25 07:28:27;;;;;;;;;;;;;;;;;;5022983;28;19924;-87
2021/09/25 07:31:09;;;;;;;;;;;;;;;;;;5015635;28;19933;-89
2021/09/25 07:33:45;;;;;;;;;;;;;;;;;;5026968;28;19925;-88
2021/09/25 07:36:16;;;;;;;;;;;;;;;;;;5011233;28;19926;-88
2021/09/25 07:38:46;;;;;;;;;;;;;;;;;;5018216;28;20383;-86
2021/09/25 07:41:15;;;;;;;;;;;;;;;;;;5035346;28;19932;-87
2021/09/25 07:43:45;;;;;;;;;;;;;;;;;;5018741;28;19925;-87
2021/09/25 07:46:17;;;;;;;;;;;;;;;;;;5010519;28;19933;-90
2021/09/25 07:48:54;;;;;;;;;;;;;;;;;;5026026;28;19924;-90
2021/09/25 07:51:28;;;;;;;;;;;;;;;;;;5019733;28;19929;-87
2021/09/25 07:54:00;;;;;;;;;;;;;;;;;;5017665;28;19925;-88
2021/09/25 07:56:34;;;;;;;;;;;;;;;;;;5016886;28;19925;-89
2021/09/25 07:59:12;;;;;;;;;;;;;;;;;;5013116;28;19932;-88
2021/09/25 08:02:03;;;;;;;;;;;;;;;;;;5046821;28;19936;-88
2021/09/25 08:04:38;;;;;;;;;;;;;;;;;;5017304;28;20462;-87
2021/09/25 08:07:13;;;;;;;;;;;;;;;;;;5016513;28;20395;-87
2021/09/25 08:09:57;;;;;;;;;;;;;;;;;;5018227;28;20292;-88
2021/09/25 08:12:30;;;;;;;;;;;;;;;;;;5011673;28;19925;-90
2021/09/25 08:15:04;;;;;;;;;;;;;;;;;;5013300;28;20307;-87
2021/09/25 08:17:45;;;;;;;;;;;;;;;;;;5023483;28;19936;-87
2021/09/25 08:20:16;;;;;;;;;;;;;;;;;;5022685;28;19940;-87
2021/09/25 08:22:46;;;;;;;;;;;;;;;;;;5022112;28;19933;-89
2021/09/25 08:25:15;;;;;;;;;;;;;;;;;;5035606;28;19930;-88
2021/09/25 08:27:43;;;;;;;;;;;;;;;;;;5023618;28;19945;-87
2021/09/25 08:30:12;;;;;;;;;;;;;;;;;;5015834;28;20051;-88
2021/09/25 08:32:42;;;;;;;;;;;;;;;;;;5005523;28;19937;-88
2021/09/25 08:35:11;;;;;;;;;;;;;;;;;;5030571;28;19925;-87
2021/09/25 08:37:39;;;;;;;;;;;;;;;;;;5011355;28;20350;-87
2021/09/25 08:40:10;;;;;;;;;;;;;;;;;;5013732;28;19932;-88
2021/09/25 08:42:39;;;;;;;;;;;;;;;;;;5016625;28;19926;-86
2021/09/25 08:45:08;;;;;;;;;;;;;;;;;;5010937;28;20413;-88
2021/09/25 08:47:36;;;;;;;;;;;;;;;;;;5030291;28;19933;-87
2021/09/25 08:50:07;;;;;;;;;;;;;;;;;;5007790;28;19925;-88
2021/09/25 08:52:35;;;;;;;;;;;;;;;;;;5027051;28;19933;-88
2021/09/25 08:55:10;;;;;;;;;;;;;;;;;;5007926;28;20185;-86
2021/09/25 08:57:43;;;;;;;;;;;;;;;;;;5015295;28;20591;-85
2021/09/25 09:00:30;;;;;;;;;;;;;;;;;;5018626;28;19936;-86
2021/09/25 09:03:16;;;;;;;;;;;;;;;;;;5019273;28;19932;-85
2021/09/25 09:05:46;;;;;;;;;;;;;;;;;;5011850;28;19930;-86
2021/09/25 09:08:14;;;;;;;;;;;;;;;;;;5020517;28;20418;-85
2021/09/25 09:10:43;;;;;;;;;;;;;;;;;;5028434;28;19926;-86
2021/09/25 09:13:11;;;;;;;;;;;;;;;;;;5028236;28;19956;-86
2021/09/25 09:15:40;;;;;;;;;;;;;;;;;;5008111;28;19933;-84
2021/09/25 09:18:12;;;;;;;;;;;;;;;;;;5021899;28;20310;-84
2021/09/25 09:20:41;;;;;;;;;;;;;;;;;;5008240;28;20422;-86
2021/09/25 09:23:17;;;;;;;;;;;;;;;;;;5027096;28;20067;-84
2021/09/25 09:25:45;;;;;;;;;;;;;;;;;;5015666;28;19926;-84
2021/09/25 09:28:14;;;;;;;;;;;;;;;;;;5051934;28;19932;-86
2021/09/25 09:30:46;;;;;;;;;;;;;;;;;;5012242;28;19925;-85
2021/09/25 09:33:27;;;;;;;;;;;;;;;;;;5012872;28;19932;-85
2021/09/25 09:35:57;;;;;;;;;;;;;;;;;;5014753;28;19949;-85
2021/09/25 09:38:26;;;;;;;;;;;;;;;;;;5014843;28;19932;-86
2021/09/25 09:40:57;;;;;;;;;;;;;;;;;;5051068;28;19929;-84
2021/09/25 09:43:25;;;;;;;;;;;;;;;;;;5041288;28;19925;-82
2021/09/25 09:45:53;;;;;;;;;;;;;;;;;;5010367;28;20034;-82
2021/09/25 09:48:21;;;;;;;;;;;;;;;;;;5015835;28;19925;-82
2021/09/25 09:50:50;;;;;;;;;;;;;;;;;;5015616;28;19936;-82
2021/09/25 09:53:19;;;;;;;;;;;;;;;;;;5031466;28;20303;-84
2021/09/25 09:55:48;;;;;;;;;;;;;;;;;;5052705;28;19925;-83
2021/09/25 09:58:17;;;;;;;;;;;;;;;;;;5014507;28;19932;-81
2021/09/25 10:00:45;;;;;;;;;;;;;;;;;;5029159;28;19940;-82
2021/09/25 10:03:13;;;;;;;;;;;;;;;;;;5012729;28;19925;-84
2021/09/25 10:05:44;;;;;;;;;;;;;;;;;;5017659;28;19925;-83
2021/09/25 10:08:12;;;;;;;;;;;;;;;;;;5009482;28;20067;-82
2021/09/25 10:10:40;;;;;;;;;;;;;;;;;;5011824;28;19926;-85
2021/09/25 10:13:10;;;;;;;;;;;;;;;;;;5030316;28;19929;-83
2021/09/25 10:15:39;;;;;;;;;;;;;;;;;;5027712;28;19925;-83
2021/09/25 10:18:07;;;;;;;;;;;;;;;;;;5016683;28;19932;-82
2021/09/25 10:20:35;;;;;;;;;;;;;;;;;;5011493;28;19929;-83
2021/09/25 10:23:04;;;;;;;;;;;;;;;;;;5030893;28;19925;-83
2021/09/25 10:25:32;;;;;;;;;;;;;;;;;;5032774;28;19933;-82
2021/09/25 10:28:01;;;;;;;;;;;;;;;;;;5015037;28;19925;-83
2021/09/25 10:30:35;;;;;;;;;;;;;;;;;;5007352;28;19934;-82
2021/09/25 10:33:13;;;;;;;;;;;;;;;;;;5000970;28;19925;-83
2021/09/25 10:35:41;;;;;;;;;;;;;;;;;;5026515;28;19925;-84
2021/09/25 10:38:10;;;;;;;;;;;;;;;;;;5013210;28;19925;-82
2021/09/25 10:41:13;;;;;;;;;;;;;;;;;;5008630;28;19941;-85
2021/09/25 10:43:42;;;;;;;;;;;;;;;;;;5034413;28;19933;-85
2021/09/25 10:46:12;;;;;;;;;;;;;;;;;;5031068;28;19932;-83
2021/09/25 10:48:48;;;;;;;;;;;;;;;;;;5038901;28;19929;-83
2021/09/25 10:51:17;;;;;;;;;;;;;;;;;;5027217;28;19933;-83
2021/09/25 10:54:13;;;;;;;;;;;;;;;;;;5012677;28;19932;-85
2021/09/25 10:56:46;;;;;;;;;;;;;;;;;;5013394;28;19929;-83
2021/09/25 10:59:14;;;;;;;;;;;;;;;;;;5016073;28;19940;-84
2021/09/25 11:01:44;;;;;;;;;;;;;;;;;;5015062;28;19925;-84
2021/09/25 11:04:13;;;;;;;;;;;;;;;;;;5013485;28;19933;-84
2021/09/25 11:06:46;;;;;;;;;;;;;;;;;;5019433;28;19933;-84
2021/09/25 11:09:27;;;;;;;;;;;;;;;;;;5024286;28;19936;-84
2021/09/25 11:11:57;;;;;;;;;;;;;;;;;;5009760;28;19929;-85
2021/09/25 11:14:27;;;;;;;;;;;;;;;;;;5027628;28;20259;-84
2021/09/25 11:17:01;;;;;;;;;;;;;;;;;;5004608;28;20728;-83
2021/09/25 11:19:30;;;;;;;;;;;;;;;;;;5027469;28;19926;-83
2021/09/25 11:21:59;;;;;;;;;;;;;;;;;;5017169;28;19930;-81
2021/09/25 11:24:29;;;;;;;;;;;;;;;;;;5012209;28;19933;-83
2021/09/25 11:26:57;;;;;;;;;;;;;;;;;;5011891;28;19944;-84
2021/09/25 11:29:25;;;;;;;;;;;;;;;;;;5008901;28;19934;-83
2021/09/25 11:32:05;;;;;;;;;;;;;;;;;;5028165;28;19925;-83
2021/09/25 11:34:33;;;;;;;;;;;;;;;;;;5032801;28;19925;-84
2021/09/25 11:37:03;;;;;;;;;;;;;;;;;;5022428;28;19925;-84
2021/09/25 11:39:36;;;;;;;;;;;;;;;;;;5030668;28;19925;-84
2021/09/25 11:42:11;;;;;;;;;;;;;;;;;;5035222;28;19936;-85
2021/09/25 11:44:50;;;;;;;;;;;;;;;;;;5021865;28;19925;-84
2021/09/25 11:47:24;;;;;;;;;;;;;;;;;;5040188;28;19933;-85
2021/09/25 11:49:52;;;;;;;;;;;;;;;;;;5034534;28;20268;-85
2021/09/25 11:52:21;;;;;;;;;;;;;;;;;;5037566;28;19925;-85
2021/09/25 11:54:49;;;;;;;;;;;;;;;;;;5036160;28;19933;-84
2021/09/25 11:57:19;;;;;;;;;;;;;;;;;;5022480;28;19948;-84
2021/09/25 11:59:47;;;;;;;;;;;;;;;;;;5021271;28;19925;-83
2021/09/25 12:02:34;;;;;;;;;;;;;;;;;;5019219;28;19925;-84
2021/09/25 12:05:05;;;;;;;;;;;;;;;;;;5033272;28;19925;-84
2021/09/25 12:07:40;;;;;;;;;;;;;;;;;;5022397;28;19925;-83
2021/09/25 12:10:12;;;;;;;;;;;;;;;;;;5012552;28;19933;-84
2021/09/25 12:12:41;;;;;;;;;;;;;;;;;;5016242;28;19929;-85
2021/09/25 12:15:09;;;;;;;;;;;;;;;;;;5041469;28;19936;-84
2021/09/25 12:17:37;;;;;;;;;;;;;;;;;;5016552;28;20357;-85
2021/09/25 12:20:20;;;;;;;;;;;;;;;;;;5013746;28;20513;-85
2021/09/25 12:22:49;;;;;;;;;;;;;;;;;;5055657;28;19929;-84
2021/09/25 12:25:17;;;;;;;;;;;;;;;;;;5016375;28;19940;-85
2021/09/25 12:27:45;;;;;;;;;;;;;;;;;;5014750;28;19925;-85
2021/09/25 12:30:17;;;;;;;;;;;;;;;;;;5018129;28;19929;-85
2021/09/25 12:32:47;;;;;;;;;;;;;;;;;;5014478;28;19933;-85
2021/09/25 12:35:18;;;;;;;;;;;;;;;;;;5018196;28;19940;-85
2021/09/25 12:37:48;;;;;;;;;;;;;;;;;;5023765;28;19943;-85
2021/09/25 12:40:17;;;;;;;;;;;;;;;;;;5018153;28;19933;-85
2021/09/25 12:42:45;;;;;;;;;;;;;;;;;;5042007;28;20426;-87
2021/09/25 12:45:14;;;;;;;;;;;;;;;;;;5018814;28;20311;-85
2021/09/25 12:47:42;;;;;;;;;;;;;;;;;;5017968;28;20296;-85
2021/09/25 12:50:15;;;;;;;;;;;;;;;;;;5019605;28;19932;-86
2021/09/25 12:52:45;;;;;;;;;;;;;;;;;;5020695;28;19925;-85
2021/09/25 12:55:15;;;;;;;;;;;;;;;;;;5023515;28;19928;-86
2021/09/25 12:57:54;;;;;;;;;;;;;;;;;;5039518;28;19932;-85
2021/09/25 13:00:26;;;;;;;;;;;;;;;;;;5020395;28;19933;-85
2021/09/25 13:02:56;;;;;;;;;;;;;;;;;;5027541;28;20281;-85
2021/09/25 13:05:25;;;;;;;;;;;;;;;;;;5021929;28;20396;-85
2021/09/25 13:07:55;;;;;;;;;;;;;;;;;;5051537;28;19924;-85
2021/09/25 13:10:24;;;;;;;;;;;;;;;;;;5023280;28;19925;-85
2021/09/25 13:12:53;;;;;;;;;;;;;;;;;;5018827;28;20465;-84
2021/09/25 13:15:23;;;;;;;;;;;;;;;;;;5021542;28;19925;-85
2021/09/25 13:17:52;;;;;;;;;;;;;;;;;;5030640;28;19929;-85
2021/09/25 13:20:21;;;;;;;;;;;;;;;;;;5016979;28;19937;-84
2021/09/25 13:22:50;;;;;;;;;;;;;;;;;;5018813;28;20315;-85
2021/09/25 13:25:24;;;;;;;;;;;;;;;;;;5035413;28;19925;-85
2021/09/25 13:27:54;;;;;;;;;;;;;;;;;;5023454;28;19926;-86
2021/09/25 13:30:24;;;;;;;;;;;;;;;;;;5041113;28;20383;-85
2021/09/25 13:32:52;;;;;;;;;;;;;;;;;;5015974;28;20548;-85
2021/09/25 13:35:21;;;;;;;;;;;;;;;;;;5022215;28;19932;-83
2021/09/25 13:37:49;;;;;;;;;;;;;;;;;;5037197;28;19932;-85
2021/09/25 13:40:17;;;;;;;;;;;;;;;;;;5042308;28;19996;-85
2021/09/25 13:42:47;;;;;;;;;;;;;;;;;;5018679;28;19929;-85
2021/09/25 13:45:17;;;;;;;;;;;;;;;;;;5009605;28;19926;-85
2021/09/25 13:47:48;;;;;;;;;;;;;;;;;;5021798;28;20000;-86
2021/09/25 13:50:17;;;;;;;;;;;;;;;;;;5021027;28;19933;-86
2021/09/25 13:52:45;;;;;;;;;;;;;;;;;;5028804;28;19913;-86
2021/09/25 13:55:14;;;;;;;;;;;;;;;;;;5017884;28;19925;-86
2021/09/25 13:57:43;;;;;;;;;;;;;;;;;;5026186;28;19940;-86
2021/09/25 14:00:13;;;;;;;;;;;;;;;;;;5024030;28;19935;-86
2021/09/25 14:02:41;;;;;;;;;;;;;;;;;;5022691;28;20315;-86
2021/09/25 14:05:10;;;;;;;;;;;;;;;;;;5024632;28;19932;-88
2021/09/25 14:07:38;;;;;;;;;;;;;;;;;;5048875;28;19936;-86
2021/09/25 14:10:07;;;;;;;;;;;;;;;;;;5024629;28;19943;-86
2021/09/25 14:12:36;;;;;;;;;;;;;;;;;;5043874;28;20320;-86
2021/09/25 14:15:04;;;;;;;;;;;;;;;;;;5036505;28;19925;-86
2021/09/25 14:17:34;;;;;;;;;;;;;;;;;;5021731;28;19925;-87
2021/09/25 14:20:03;;;;;;;;;;;;;;;;;;5020281;28;19944;-86
2021/09/25 14:22:33;;;;;;;;;;;;;;;;;;5029803;28;20200;-86
2021/09/25 14:25:01;;;;;;;;;;;;;;;;;;5019759;28;19925;-88
2021/09/25 14:27:31;;;;;;;;;;;;;;;;;;5053868;28;19926;-87
2021/09/25 14:29:59;;;;;;;;;;;;;;;;;;5043244;28;19934;-87
2021/09/25 14:32:27;;;;;;;;;;;;;;;;;;5020596;28;20371;-86
2021/09/25 14:34:57;;;;;;;;;;;;;;;;;;5022218;28;19930;-86
2021/09/25 14:37:25;;;;;;;;;;;;;;;;;;5020848;28;19933;-86
2021/09/25 14:39:54;;;;;;;;;;;;;;;;;;5038850;28;19925;-85
2021/09/25 14:42:23;;;;;;;;;;;;;;;;;;5035718;28;19936;-86
2021/09/25 14:44:52;;;;;;;;;;;;;;;;;;5020275;28;20323;-86
2021/09/25 14:47:21;;;;;;;;;;;;;;;;;;5022198;28;19925;-86
2021/09/25 14:49:49;;;;;;;;;;;;;;;;;;5011838;28;20275;-86
2021/09/25 14:52:19;;;;;;;;;;;;;;;;;;5015674;28;20129;-85
2021/09/25 14:54:48;;;;;;;;;;;;;;;;;;5014793;28;19933;-86
2021/09/25 14:57:16;;;;;;;;;;;;;;;;;;5018884;28;20383;-85
2021/09/25 14:59:44;;;;;;;;;;;;;;;;;;5031856;28;19936;-85
2021/09/25 15:02:12;;;;;;;;;;;;;;;;;;5030617;28;19937;-85
2021/09/25 15:04:41;;;;;;;;;;;;;;;;;;5010815;28;19929;-84
2021/09/25 15:07:09;;;;;;;;;;;;;;;;;;5031999;28;19932;-85
2021/09/25 15:09:39;;;;;;;;;;;;;;;;;;5012302;28;19925;-85
2021/09/25 15:12:08;;;;;;;;;;;;;;;;;;5014465;28;19936;-84
2021/09/25 15:14:36;;;;;;;;;;;;;;;;;;5033736;28;19932;-85
2021/09/25 15:17:04;;;;;;;;;;;;;;;;;;5035859;28;19932;-85
2021/09/25 15:19:33;;;;;;;;;;;;;;;;;;5019483;28;19943;-85
2021/09/25 15:22:01;;;;;;;;;;;;;;;;;;5013725;28;19925;-85
2021/09/25 15:24:30;;;;;;;;;;;;;;;;;;5015260;28;19926;-85
2021/09/25 15:26:59;;;;;;;;;;;;;;;;;;5014151;28;19925;-85
2021/09/25 15:29:30;;;;;;;;;;;;;;;;;;5007688;28;19933;-82
2021/09/25 15:31:58;;;;;;;;;;;;;;;;;;5019862;28;19926;-83
2021/09/25 15:34:27;;;;;;;;;;;;;;;;;;5022126;28;19925;-82
2021/09/25 15:36:55;;;;;;;;;;;;;;;;;;5012295;28;19953;-84
2021/09/25 15:39:24;;;;;;;;;;;;;;;;;;5013940;28;19925;-84
2021/09/25 15:41:52;;;;;;;;;;;;;;;;;;5033679;28;19932;-83
2021/09/25 15:44:22;;;;;;;;;;;;;;;;;;5023391;28;19936;-84
2021/09/25 15:46:51;;;;;;;;;;;;;;;;;;5016371;28;20287;-83
2021/09/25 15:49:19;;;;;;;;;;;;;;;;;;5020452;28;19940;-83
2021/09/25 15:51:47;;;;;;;;;;;;;;;;;;5022462;28;20086;-83
2021/09/25 15:54:15;;;;;;;;;;;;;;;;;;5037214;28;19925;-84
2021/09/25 15:56:44;;;;;;;;;;;;;;;;;;5020535;28;19936;-88
2021/09/25 15:59:12;;;;;;;;;;;;;;;;;;5022959;28;19932;-84
2021/09/25 16:01:42;;;;;;;;;;;;;;;;;;5018242;28;19937;-84
2021/09/25 16:04:10;;;;;;;;;;;;;;;;;;5032494;28;19933;-84
2021/09/25 16:06:39;;;;;;;;;;;;;;;;;;5018212;28;19930;-85
2021/09/25 16:09:24;;;;;;;;;;;;;;;;;;5034505;28;19948;-85
2021/09/25 16:11:52;;;;;;;;;;;;;;;;;;5037049;28;19929;-84
2021/09/25 16:14:20;;;;;;;;;;;;;;;;;;5025019;28;19929;-84
2021/09/25 16:16:51;;;;;;;;;;;;;;;;;;5023096;28;19936;-82
2021/09/25 16:19:19;;;;;;;;;;;;;;;;;;5029167;28;19926;-83
2021/09/25 16:21:48;;;;;;;;;;;;;;;;;;5037120;28;19926;-82
2021/09/25 16:24:16;;;;;;;;;;;;;;;;;;5032463;28;19925;-82
2021/09/25 16:26:44;;;;;;;;;;;;;;;;;;5017912;28;19932;-82
2021/09/25 16:29:13;;;;;;;;;;;;;;;;;;5022866;28;19925;-84
2021/09/25 16:31:41;;;;;;;;;;;;;;;;;;5023202;28;19933;-88
2021/09/25 16:34:10;;;;;;;;;;;;;;;;;;5035313;28;19925;-83
2021/09/25 16:36:39;;;;;;;;;;;;;;;;;;5023576;28;19925;-84
2021/09/25 16:39:07;;;;;;;;;;;;;;;;;;5040898;28;19932;-84
2021/09/25 16:41:35;;;;;;;;;;;;;;;;;;5037295;28;20395;-84
2021/09/25 16:44:04;;;;;;;;;;;;;;;;;;5041048;28;19939;-83
2021/09/25 16:46:34;;;;;;;;;;;;;;;;;;5042563;28;19925;-83
2021/09/25 16:49:02;;;;;;;;;;;;;;;;;;5023961;28;20091;-83
2021/09/25 16:51:32;;;;;;;;;;;;;;;;;;5023512;28;19925;-82
2021/09/25 16:54:05;;;;;;;;;;;;;;;;;;5023193;28;19932;-84
2021/09/25 16:56:37;;;;;;;;;;;;;;;;;;5035885;28;19932;-85
2021/09/25 16:59:05;;;;;;;;;;;;;;;;;;5027628;28;20152;-85
2021/09/25 17:01:34;;;;;;;;;;;;;;;;;;5024938;28;19929;-85
2021/09/25 17:04:03;;;;;;;;;;;;;;;;;;5021575;28;19926;-83
2021/09/25 17:06:33;;;;;;;;;;;;;;;;;;5018978;28;20133;-85
2021/09/25 17:09:04;;;;;;;;;;;;;;;;;;5029717;28;19925;-86